Time;durP1;ratioP1;P1;durP2;ratioP2;P2;SDS_P1;SDS_P2;PMS_P1;PMS_P2;Temp;Humidity;BMP_temperature;BMP_pressure;BME280_temperature;BME280_humidity;BME280_pressure;Samples;Min_cycle;Max_cycle;Signal;HPM_P1;HPM_P2
2021/12/03 00:01:11;;;;;;;6.93;2.80;;;;;;;;;;4934388;29;20027;-75
2021/12/03 00:03:38;;;;;;;6.17;2.43;;;;;;;;;;4932913;29;20030;-75
2021/12/03 00:06:04;;;;;;;4.50;2.20;;;;;;;;;;4932896;29;20035;-77
2021/12/03 00:08:30;;;;;;;4.93;2.00;;;;;;;;;;4932431;29;20127;-75
2021/12/03 00:10:59;;;;;;;4.30;2.10;;;;;;;;;;4933843;29;20110;-78
2021/12/03 00:13:26;;;;;;;3.57;2.13;;;;;;;;;;4933379;29;20027;-76
2021/12/03 00:15:53;;;;;;;13.50;3.00;;;;;;;;;;4933668;29;20070;-76
2021/12/03 00:18:19;;;;;;;8.73;2.07;;;;;;;;;;4932207;29;20074;-76
2021/12/03 00:20:45;;;;;;;5.37;1.97;;;;;;;;;;4933396;29;20090;-75
2021/12/03 00:23:11;;;;;;;6.13;2.10;;;;;;;;;;4932022;29;20031;-76
2021/12/03 00:25:36;;;;;;;4.13;1.80;;;;;;;;;;4933339;29;20035;-74
2021/12/03 00:28:03;;;;;;;11.17;2.50;;;;;;;;;;4932937;29;20032;-74
2021/12/03 00:30:29;;;;;;;5.40;1.93;;;;;;;;;;4932283;29;20028;-76
2021/12/03 00:32:55;;;;;;;4.43;1.87;;;;;;;;;;4932018;29;20034;-75
2021/12/03 00:35:21;;;;;;;9.87;2.00;;;;;;;;;;4931831;29;20044;-75
2021/12/03 00:37:48;;;;;;;7.00;1.93;;;;;;;;;;4933033;29;20433;-76
2021/12/03 00:40:18;;;;;;;9.63;2.00;;;;;;;;;;4931756;29;20027;-76
2021/12/03 00:42:44;;;;;;;6.47;2.33;;;;;;;;;;4932683;29;20030;-76
2021/12/03 00:45:11;;;;;;;3.57;1.70;;;;;;;;;;4932795;29;20028;-76
2021/12/03 00:47:38;;;;;;;5.50;1.53;;;;;;;;;;4931343;29;20019;-76
2021/12/03 00:50:05;;;;;;;2.50;1.67;;;;;;;;;;4933045;29;20437;-77
2021/12/03 00:52:31;;;;;;;10.40;2.73;;;;;;;;;;4931385;29;20031;-77
2021/12/03 00:54:57;;;;;;;5.30;2.30;;;;;;;;;;4931911;29;20099;-75
2021/12/03 00:57:22;;;;;;;7.50;1.90;;;;;;;;;;4933074;29;20062;-75
2021/12/03 00:59:48;;;;;;;8.53;2.00;;;;;;;;;;4931719;29;20051;-75
2021/12/03 01:02:13;;;;;;;4.50;2.00;;;;;;;;;;4931714;29;20115;-75
2021/12/03 01:04:39;;;;;;;6.20;2.47;;;;;;;;;;4931460;29;20086;-77
2021/12/03 01:07:05;;;;;;;6.23;2.20;;;;;;;;;;4932833;29;20027;-76
2021/12/03 01:09:31;;;;;;;7.13;2.90;;;;;;;;;;4933801;29;20023;-76
2021/12/03 01:11:57;;;;;;;10.23;3.30;;;;;;;;;;4934863;29;20063;-75
2021/12/03 01:14:23;;;;;;;5.00;2.23;;;;;;;;;;4934481;29;20030;-76
2021/12/03 01:16:48;;;;;;;13.73;2.90;;;;;;;;;;4934152;29;20458;-76
2021/12/03 01:19:14;;;;;;;8.17;2.57;;;;;;;;;;4931756;29;20028;-76
2021/12/03 01:21:40;;;;;;;5.73;2.20;;;;;;;;;;4931596;29;20482;-78
2021/12/03 01:24:06;;;;;;;7.53;2.87;;;;;;;;;;4932302;29;20024;-77
2021/12/03 01:26:33;;;;;;;8.73;2.53;;;;;;;;;;4932461;29;20027;-76
2021/12/03 01:28:59;;;;;;;6.93;2.87;;;;;;;;;;4932775;29;20027;-77
2021/12/03 01:31:25;;;;;;;8.53;2.60;;;;;;;;;;4931485;29;20063;-75
2021/12/03 01:33:51;;;;;;;10.50;3.07;;;;;;;;;;4933277;29;20355;-76
2021/12/03 01:36:17;;;;;;;6.00;2.70;;;;;;;;;;4934360;29;20047;-76
2021/12/03 01:38:43;;;;;;;7.07;2.77;;;;;;;;;;4932045;29;20036;-75
2021/12/03 01:41:09;;;;;;;9.93;3.93;;;;;;;;;;4936401;29;20047;-76
2021/12/03 01:43:34;;;;;;;6.83;3.00;;;;;;;;;;4934855;29;20088;-76
2021/12/03 01:46:03;;;;;;;9.40;3.57;;;;;;;;;;4936185;29;20036;-76
2021/12/03 01:48:29;;;;;;;10.17;4.37;;;;;;;;;;4936418;29;20030;-70
2021/12/03 01:50:55;;;;;;;11.07;4.20;;;;;;;;;;4936032;29;20432;-75
2021/12/03 01:53:24;;;;;;;12.33;4.57;;;;;;;;;;4934518;29;20031;-76
2021/12/03 01:55:51;;;;;;;14.37;4.67;;;;;;;;;;4936109;29;20027;-74
2021/12/03 01:58:17;;;;;;;12.13;4.93;;;;;;;;;;4934898;29;20023;-76
2021/12/03 02:00:55;;;;;;;15.00;5.87;;;;;;;;;;4934383;29;20086;-74
2021/12/03 02:03:27;;;;;;;13.43;4.47;;;;;;;;;;4934732;29;20099;-76
2021/12/03 02:05:53;;;;;;;11.90;5.13;;;;;;;;;;4934401;29;20044;-75
2021/12/03 02:08:19;;;;;;;12.57;4.70;;;;;;;;;;4936131;29;20059;-75
2021/12/03 02:10:45;;;;;;;18.37;6.50;;;;;;;;;;4934332;29;20064;-76
2021/12/03 02:13:12;;;;;;;13.90;5.50;;;;;;;;;;4934418;29;20020;-76
2021/12/03 02:15:39;;;;;;;12.20;4.57;;;;;;;;;;4934412;29;20027;-77
2021/12/03 02:18:09;;;;;;;13.63;4.83;;;;;;;;;;4934232;29;20524;-73
2021/12/03 02:20:40;;;;;;;16.07;5.47;;;;;;;;;;4935464;29;20571;-76
2021/12/03 02:23:07;;;;;;;10.53;4.90;;;;;;;;;;4934139;29;20020;-74
2021/12/03 02:25:33;;;;;;;11.33;4.17;;;;;;;;;;4935364;29;20031;-76
2021/12/03 02:27:58;;;;;;;12.00;4.37;;;;;;;;;;4935618;29;20053;-76
2021/12/03 02:30:25;;;;;;;13.33;5.33;;;;;;;;;;4934343;29;20443;-76
2021/12/03 02:32:54;;;;;;;12.87;4.33;;;;;;;;;;4934164;29;20171;-74
2021/12/03 02:35:21;;;;;;;16.00;5.70;;;;;;;;;;4934443;29;20054;-76
2021/12/03 02:37:48;;;;;;;5.77;3.80;;;;;;;;;;4932655;29;20038;-76
2021/12/03 02:40:15;;;;;;;12.47;4.07;;;;;;;;;;4935468;29;20499;-74
2021/12/03 02:42:42;;;;;;;10.50;3.90;;;;;;;;;;4936040;29;20054;-76
2021/12/03 02:45:08;;;;;;;10.43;3.53;;;;;;;;;;4937120;29;20354;-78
2021/12/03 02:47:34;;;;;;;15.20;4.97;;;;;;;;;;4936255;29;20028;-74
2021/12/03 02:50:00;;;;;;;17.40;4.47;;;;;;;;;;4932771;29;20024;-75
2021/12/03 02:52:26;;;;;;;13.00;4.73;;;;;;;;;;4932726;29;20023;-75
2021/12/03 02:54:52;;;;;;;10.10;4.30;;;;;;;;;;4933765;29;20115;-75
2021/12/03 02:57:17;;;;;;;9.83;4.23;;;;;;;;;;4934059;29;20067;-76
2021/12/03 02:59:43;;;;;;;12.33;4.57;;;;;;;;;;4933695;29;20024;-75
2021/12/03 03:02:09;;;;;;;10.87;3.93;;;;;;;;;;4933950;29;20363;-77
2021/12/03 03:04:34;;;;;;;11.93;4.53;;;;;;;;;;4933605;29;20241;-75
2021/12/03 03:07:00;;;;;;;13.07;4.23;;;;;;;;;;4933767;29;20030;-75
2021/12/03 03:09:26;;;;;;;13.70;4.83;;;;;;;;;;4934082;29;20035;-76
2021/12/03 03:11:52;;;;;;;9.73;4.53;;;;;;;;;;4932189;29;20370;-75
2021/12/03 03:14:18;;;;;;;19.07;4.80;;;;;;;;;;4933461;29;20032;-77
2021/12/03 03:16:44;;;;;;;17.83;5.70;;;;;;;;;;4933728;29;20027;-76
2021/12/03 03:19:11;;;;;;;11.33;4.37;;;;;;;;;;4933542;29;20511;-76
2021/12/03 03:21:37;;;;;;;10.73;4.80;;;;;;;;;;4931916;29;20034;-75
2021/12/03 03:24:04;;;;;;;13.67;5.67;;;;;;;;;;4933365;29;20031;-75
2021/12/03 03:26:30;;;;;;;11.87;4.70;;;;;;;;;;4932050;29;20031;-75
2021/12/03 03:28:57;;;;;;;12.03;4.50;;;;;;;;;;4933226;29;20603;-76
2021/12/03 03:31:23;;;;;;;10.30;4.47;;;;;;;;;;4932173;29;20032;-76
2021/12/03 03:33:49;;;;;;;8.07;4.53;;;;;;;;;;4933337;29;20027;-76
2021/12/03 03:36:16;;;;;;;17.80;5.10;;;;;;;;;;4870487;29;1867728;-76
2021/12/03 03:38:42;;;;;;;15.17;6.47;;;;;;;;;;4932591;29;20401;-75
2021/12/03 03:41:07;;;;;;;13.20;6.47;;;;;;;;;;4934047;29;20035;-76
2021/12/03 03:43:33;;;;;;;20.47;7.53;;;;;;;;;;4933061;29;20480;-76
2021/12/03 03:45:59;;;;;;;31.13;12.33;;;;;;;;;;4932532;29;20042;-76
2021/12/03 03:48:25;;;;;;;34.43;14.70;;;;;;;;;;4932534;29;20091;-75
2021/12/03 03:50:51;;;;;;;28.00;12.10;;;;;;;;;;4934267;29;20063;-75
2021/12/03 03:53:16;;;;;;;14.87;8.10;;;;;;;;;;4933899;29;20453;-75
2021/12/03 03:55:42;;;;;;;24.03;8.37;;;;;;;;;;4933526;29;20110;-75
2021/12/03 03:58:08;;;;;;;20.33;7.20;;;;;;;;;;4932206;29;20028;-76
2021/12/03 04:00:39;;;;;;;18.53;6.60;;;;;;;;;;4932695;29;20040;-76
2021/12/03 04:03:05;;;;;;;17.20;6.20;;;;;;;;;;4932989;29;20031;-76
2021/12/03 04:05:31;;;;;;;11.33;5.70;;;;;;;;;;4933768;29;20099;-75
2021/12/03 04:07:57;;;;;;;14.37;7.83;;;;;;;;;;4932070;29;20056;-77
2021/12/03 04:10:23;;;;;;;32.67;11.30;;;;;;;;;;4933766;29;20508;-75
2021/12/03 04:12:49;;;;;;;27.93;8.27;;;;;;;;;;4933281;29;20118;-75
2021/12/03 04:15:14;;;;;;;28.10;7.93;;;;;;;;;;4933822;29;20036;-74
2021/12/03 04:17:40;;;;;;;22.23;7.70;;;;;;;;;;4933270;29;20024;-76
2021/12/03 04:20:09;;;;;;;17.43;7.10;;;;;;;;;;4932270;29;20090;-76
2021/12/03 04:22:35;;;;;;;18.47;6.20;;;;;;;;;;4932185;29;20050;-75
2021/12/03 04:25:02;;;;;;;21.53;6.37;;;;;;;;;;4932054;29;20480;-77
2021/12/03 04:27:28;;;;;;;18.93;6.63;;;;;;;;;;4933444;29;20032;-74
2021/12/03 04:29:54;;;;;;;17.93;6.17;;;;;;;;;;4931929;29;20446;-76
2021/12/03 04:32:24;;;;;;;16.63;6.87;;;;;;;;;;4931955;29;20036;-75
2021/12/03 04:34:51;;;;;;;15.80;5.77;;;;;;;;;;4933025;29;20056;-74
2021/12/03 04:37:16;;;;;;;18.30;6.67;;;;;;;;;;4932144;29;20515;-77
2021/12/03 04:39:41;;;;;;;15.40;5.50;;;;;;;;;;4931801;29;20063;-77
2021/12/03 04:42:07;;;;;;;15.43;6.43;;;;;;;;;;4932052;29;20024;-76
2021/12/03 04:44:35;;;;;;;20.97;6.03;;;;;;;;;;4931677;29;20027;-76
2021/12/03 04:47:01;;;;;;;16.97;6.20;;;;;;;;;;4933088;29;20062;-77
2021/12/03 04:49:26;;;;;;;14.53;6.83;;;;;;;;;;4933163;29;20055;-76
2021/12/03 04:51:52;;;;;;;12.07;5.37;;;;;;;;;;4932869;29;20393;-74
2021/12/03 04:54:17;;;;;;;15.03;6.13;;;;;;;;;;4932026;29;20028;-75
2021/12/03 04:56:43;;;;;;;15.97;6.63;;;;;;;;;;4931493;29;20132;-73
2021/12/03 04:59:08;;;;;;;12.20;5.33;;;;;;;;;;4933049;29;20148;-76
2021/12/03 05:01:34;;;;;;;16.47;6.30;;;;;;;;;;4933504;29;20053;-75
2021/12/03 05:04:00;;;;;;;15.77;6.47;;;;;;;;;;4933006;29;20072;-74
2021/12/03 05:06:30;;;;;;;18.17;6.83;;;;;;;;;;4932076;29;20027;-74
2021/12/03 05:08:56;;;;;;;22.73;5.90;;;;;;;;;;4931443;29;20042;-77
2021/12/03 05:11:21;;;;;;;23.97;5.57;;;;;;;;;;4932856;29;20031;-75
2021/12/03 05:13:47;;;;;;;14.93;5.53;;;;;;;;;;4931026;29;20035;-77
2021/12/03 05:16:13;;;;;;;16.77;6.47;;;;;;;;;;4932598;29;20069;-75
2021/12/03 05:18:38;;;;;;;16.57;5.83;;;;;;;;;;4931497;29;20075;-77
2021/12/03 05:21:04;;;;;;;34.90;14.47;;;;;;;;;;4931281;29;20051;-75
2021/12/03 05:23:32;;;;;;;18.57;7.17;;;;;;;;;;4931756;29;20031;-75
2021/12/03 05:25:59;;;;;;;16.77;5.73;;;;;;;;;;4931183;29;20035;-76
2021/12/03 05:28:25;;;;;;;14.83;5.83;;;;;;;;;;4932951;29;20138;-75
2021/12/03 05:30:51;;;;;;;16.73;6.73;;;;;;;;;;4932434;29;20034;-76
2021/12/03 05:33:17;;;;;;;14.13;6.50;;;;;;;;;;4932577;29;20032;-77
2021/12/03 05:35:43;;;;;;;15.37;6.00;;;;;;;;;;4932167;29;20063;-75
2021/12/03 05:38:08;;;;;;;20.73;7.20;;;;;;;;;;4932007;29;20031;-76
2021/12/03 05:40:34;;;;;;;19.33;6.73;;;;;;;;;;4933167;29;20035;-77
2021/12/03 05:42:59;;;;;;;20.23;8.13;;;;;;;;;;4932330;29;20484;-75
2021/12/03 05:45:29;;;;;;;16.80;6.97;;;;;;;;;;4933469;29;20453;-75
2021/12/03 05:47:56;;;;;;;20.10;7.30;;;;;;;;;;4930948;29;20036;-76
2021/12/03 05:50:23;;;;;;;18.97;7.07;;;;;;;;;;4932401;29;20055;-75
2021/12/03 05:52:50;;;;;;;22.47;7.67;;;;;;;;;;4930721;29;20023;-76
2021/12/03 05:55:17;;;;;;;40.43;11.27;;;;;;;;;;4932508;29;20042;-75
2021/12/03 05:57:43;;;;;;;16.10;7.30;;;;;;;;;;4932539;29;20382;-75
2021/12/03 06:00:14;;;;;;;27.17;7.23;;;;;;;;;;4932673;29;20361;-78
2021/12/03 06:02:39;;;;;;;18.30;7.60;;;;;;;;;;4931185;29;20046;-76
2021/12/03 06:05:06;;;;;;;19.23;7.43;;;;;;;;;;4924428;29;20035;-76
2021/12/03 06:07:32;;;;;;;18.70;8.90;;;;;;;;;;4895419;29;20112;-76
2021/12/03 06:09:57;;;;;;;17.13;6.33;;;;;;;;;;4936638;29;20032;-76
2021/12/03 06:12:23;;;;;;;17.27;8.00;;;;;;;;;;4931729;29;20034;-75
2021/12/03 06:14:48;;;;;;;17.80;6.57;;;;;;;;;;4930951;29;20059;-76
2021/12/03 06:17:15;;;;;;;24.57;6.97;;;;;;;;;;4932485;29;20134;-74
2021/12/03 06:19:41;;;;;;;20.90;7.03;;;;;;;;;;4930759;29;20568;-76
2021/12/03 06:22:08;;;;;;;19.20;6.80;;;;;;;;;;4929769;29;20523;-76
2021/12/03 06:24:33;;;;;;;17.40;6.13;;;;;;;;;;4931870;29;20028;-76
2021/12/03 06:26:59;;;;;;;18.60;7.70;;;;;;;;;;4935560;29;20516;-77
2021/12/03 06:29:25;;;;;;;13.27;6.60;;;;;;;;;;4933948;29;20518;-75
2021/12/03 06:31:51;;;;;;;14.03;6.03;;;;;;;;;;4934762;29;20051;-75
2021/12/03 06:34:17;;;;;;;23.93;6.47;;;;;;;;;;4932951;29;20032;-75
2021/12/03 06:36:43;;;;;;;14.73;6.10;;;;;;;;;;4914578;29;20481;-76
2021/12/03 06:39:08;;;;;;;20.93;6.40;;;;;;;;;;4916983;29;20111;-76
2021/12/03 06:41:34;;;;;;;10.63;5.77;;;;;;;;;;4917258;29;20111;-78
2021/12/03 06:44:00;;;;;;;22.53;6.67;;;;;;;;;;4901080;29;20099;-77
2021/12/03 06:46:25;;;;;;;18.83;6.13;;;;;;;;;;4917863;29;20039;-78
2021/12/03 06:48:51;;;;;;;18.30;6.30;;;;;;;;;;4928324;29;20035;-76
2021/12/03 06:51:17;;;;;;;21.93;5.77;;;;;;;;;;4935888;29;20044;-76
2021/12/03 06:53:54;;;;;;;20.90;6.53;;;;;;;;;;4934703;29;20113;-76
2021/12/03 06:56:21;;;;;;;21.77;6.77;;;;;;;;;;4933984;29;20041;-76
2021/12/03 06:58:47;;;;;;;15.47;6.13;;;;;;;;;;4932643;29;20036;-77
2021/12/03 07:01:13;;;;;;;16.37;6.17;;;;;;;;;;4920031;29;20043;-76
2021/12/03 07:03:39;;;;;;;17.40;6.47;;;;;;;;;;4928439;29;20032;-77
2021/12/03 07:06:04;;;;;;;16.57;5.97;;;;;;;;;;4934794;29;20095;-76
2021/12/03 07:08:30;;;;;;;22.57;7.47;;;;;;;;;;4941049;29;20038;-77
2021/12/03 07:10:55;;;;;;;18.00;8.27;;;;;;;;;;4936968;29;20020;-73
2021/12/03 07:13:21;;;;;;;21.73;7.40;;;;;;;;;;4932716;29;20031;-78
2021/12/03 07:15:47;;;;;;;15.30;6.27;;;;;;;;;;4929652;29;20141;-76
2021/12/03 07:18:13;;;;;;;18.53;7.17;;;;;;;;;;4928417;29;20118;-77
2021/12/03 07:20:38;;;;;;;19.70;7.70;;;;;;;;;;4925363;29;20063;-77
2021/12/03 07:23:04;;;;;;;16.20;6.53;;;;;;;;;;4931380;29;20064;-80
2021/12/03 07:25:30;;;;;;;16.57;8.00;;;;;;;;;;4931949;29;20054;-75
2021/12/03 07:27:55;;;;;;;25.67;9.50;;;;;;;;;;4932124;29;20464;-76
2021/12/03 07:30:21;;;;;;;18.50;7.27;;;;;;;;;;4930553;29;20046;-77
2021/12/03 07:32:48;;;;;;;23.80;8.60;;;;;;;;;;4919904;29;20131;-76
2021/12/03 07:35:14;;;;;;;16.03;6.23;;;;;;;;;;4931835;29;20078;-77
2021/12/03 07:37:42;;;;;;;19.07;7.00;;;;;;;;;;4932001;29;20027;-76
2021/12/03 07:40:09;;;;;;;24.77;7.10;;;;;;;;;;4927722;28;20538;-77
2021/12/03 07:42:35;;;;;;;23.70;7.90;;;;;;;;;;4926695;29;20673;-76
2021/12/03 07:45:02;;;;;;;17.83;6.87;;;;;;;;;;4932106;29;20050;-75
2021/12/03 07:47:27;;;;;;;17.43;6.20;;;;;;;;;;4932014;29;20062;-74
2021/12/03 07:49:53;;;;;;;16.53;7.37;;;;;;;;;;4906427;29;20663;-77
2021/12/03 07:52:21;;;;;;;13.40;7.13;;;;;;;;;;4932167;29;20031;-76
2021/12/03 07:54:47;;;;;;;18.57;7.43;;;;;;;;;;4923377;29;20655;-74
2021/12/03 07:57:13;;;;;;;12.83;6.20;;;;;;;;;;4927503;29;20035;-77
2021/12/03 07:59:39;;;;;;;14.50;7.03;;;;;;;;;;4932066;29;20744;-76
2021/12/03 08:02:04;;;;;;;16.40;6.60;;;;;;;;;;4927266;29;20028;-75
2021/12/03 08:04:30;;;;;;;21.53;7.37;;;;;;;;;;4930008;29;20031;-77
2021/12/03 08:06:56;;;;;;;20.60;7.80;;;;;;;;;;4933547;29;20461;-77
2021/12/03 08:09:22;;;;;;;24.53;8.43;;;;;;;;;;4931833;29;20028;-77
2021/12/03 08:11:48;;;;;;;19.67;7.17;;;;;;;;;;4930179;29;20126;-76
2021/12/03 08:14:14;;;;;;;22.60;8.00;;;;;;;;;;4928615;29;20114;-73
2021/12/03 08:16:40;;;;;;;22.90;8.20;;;;;;;;;;4919153;29;20032;-74
2021/12/03 08:19:06;;;;;;;20.60;7.83;;;;;;;;;;4929987;29;20034;-75
2021/12/03 08:21:32;;;;;;;18.27;7.57;;;;;;;;;;4929738;29;20023;-76
2021/12/03 08:24:00;;;;;;;27.10;7.73;;;;;;;;;;4926144;29;20027;-76
2021/12/03 08:26:27;;;;;;;20.43;9.70;;;;;;;;;;4927028;29;20028;-76
2021/12/03 08:28:52;;;;;;;16.87;8.00;;;;;;;;;;4926812;29;20019;-74
2021/12/03 08:31:18;;;;;;;17.23;6.80;;;;;;;;;;4905493;29;20047;-73
2021/12/03 08:33:45;;;;;;;19.03;6.53;;;;;;;;;;4933159;29;20157;-75
2021/12/03 08:36:11;;;;;;;15.00;6.10;;;;;;;;;;4934767;28;20047;-75
2021/12/03 08:38:37;;;;;;;17.57;6.60;;;;;;;;;;4923768;29;20032;-76
2021/12/03 08:41:03;;;;;;;13.60;5.07;;;;;;;;;;4928670;29;20046;-77
2021/12/03 08:43:29;;;;;;;18.53;7.03;;;;;;;;;;4915789;28;20059;-78
2021/12/03 08:45:57;;;;;;;14.17;4.57;;;;;;;;;;4941267;28;20113;-77
2021/12/03 08:48:24;;;;;;;13.97;5.90;;;;;;;;;;4912237;29;20154;-76
2021/12/03 08:56:20;;;;;;;12.73;4.87;;;;;;;;;;4929793;29;20035;-76
2021/12/03 08:58:46;;;;;;;12.53;4.60;;;;;;;;;;4932754;29;20420;-74
2021/12/03 09:01:13;;;;;;;17.00;6.13;;;;;;;;;;4930178;29;20035;-74
2021/12/03 09:03:39;;;;;;;9.40;4.50;;;;;;;;;;4924671;29;20038;-74
2021/12/03 09:06:05;;;;;;;13.20;4.80;;;;;;;;;;4929714;29;20424;-75
2021/12/03 09:08:31;;;;;;;14.73;5.20;;;;;;;;;;4927299;29;20047;-75
2021/12/03 09:10:57;;;;;;;10.47;4.53;;;;;;;;;;4929930;29;20043;-77
2021/12/03 09:13:23;;;;;;;7.73;4.13;;;;;;;;;;4928413;29;20039;-76
2021/12/03 09:16:03;;;;;;;9.80;4.33;;;;;;;;;;4922535;29;20042;-77
2021/12/03 09:18:47;;;;;;;10.03;4.40;;;;;;;;;;4928530;29;20091;-77
2021/12/03 09:21:34;;;;;;;15.07;4.47;;;;;;;;;;4929742;29;20032;-76
2021/12/03 09:24:08;;;;;;;8.67;3.97;;;;;;;;;;4925471;29;20032;-78
2021/12/03 09:26:38;;;;;;;11.20;4.40;;;;;;;;;;4928850;29;20032;-75
2021/12/03 09:29:07;;;;;;;11.30;4.80;;;;;;;;;;4927903;29;20038;-76
2021/12/03 09:31:35;;;;;;;13.67;4.87;;;;;;;;;;4925922;29;20495;-77
2021/12/03 09:34:00;;;;;;;12.70;4.83;;;;;;;;;;4928938;29;20034;-77
2021/12/03 09:36:26;;;;;;;10.03;3.90;;;;;;;;;;4923119;29;20035;-77
2021/12/03 09:38:52;;;;;;;7.80;4.13;;;;;;;;;;4928561;29;20040;-76
2021/12/03 09:41:20;;;;;;;7.83;3.80;;;;;;;;;;4927576;29;20058;-76
2021/12/03 09:43:49;;;;;;;8.30;3.67;;;;;;;;;;4929909;29;20123;-75
2021/12/03 09:46:22;;;;;;;11.83;4.03;;;;;;;;;;4929295;29;20027;-78
2021/12/03 09:51:21;;;;;;;8.90;4.13;;;;;;;;;;4922794;29;20130;-78
2021/12/03 09:56:22;;;;;;;6.47;3.37;;;;;;;;;;4929033;29;20032;-77
2021/12/03 10:05:03;;;;;;;4.73;2.33;;;;;;;;;;4930133;29;20401;-76
2021/12/03 10:12:39;;;;;;;8.27;4.13;;;;;;;;;;4926511;29;20082;-77
2021/12/03 10:15:26;;;;;;;5.60;3.13;;;;;;;;;;4926906;29;20070;-76
2021/12/03 10:21:02;;;;;;;8.93;3.30;;;;;;;;;;4924275;29;20385;-76
2021/12/03 10:24:23;;;;;;;6.73;3.33;;;;;;;;;;4930675;29;20556;-76
2021/12/03 10:29:28;;;;;;;4.90;3.00;;;;;;;;;;4928442;29;20257;-76
2021/12/03 10:41:08;;;;;;;10.67;4.77;;;;;;;;;;4924129;29;20733;-74
2021/12/03 10:51:30;;;;;;;9.33;3.40;;;;;;;;;;4927448;29;20059;-78
2021/12/03 10:54:25;;;;;;;9.23;3.60;;;;;;;;;;4939395;28;20406;-74
2021/12/03 10:59:40;;;;;;;7.90;3.17;;;;;;;;;;4927986;29;20035;-79
2021/12/03 11:41:57;;;;;;;9.15;4.32;;;;;;;;;;4929446;29;20035;-72
2021/12/03 13:56:38;;;;;;;6.37;2.77;;;;;;;;;;4925536;29;20042;-71
2021/12/03 14:12:21;;;;;;;8.63;3.53;;;;;;;;;;4927902;29;20050;-72
2021/12/03 14:36:33;;;;;;;7.10;2.73;;;;;;;;;;4926864;29;20083;-72
2021/12/03 14:50:06;;;;;;;9.13;3.37;;;;;;;;;;4936661;28;20038;-71
2021/12/03 14:55:02;;;;;;;7.13;3.27;;;;;;;;;;4926120;29;20178;-72
2021/12/03 14:57:36;;;;;;;7.30;3.53;;;;;;;;;;4927843;29;20070;-72
2021/12/03 15:03:35;;;;;;;6.97;3.80;;;;;;;;;;4927053;29;20024;-71
2021/12/03 15:08:39;;;;;;;6.23;3.60;;;;;;;;;;4924962;29;20115;-71
2021/12/03 15:19:03;;;;;;;22.10;5.87;;;;;;;;;;4928718;29;20087;-71
2021/12/03 16:06:24;;;;;;;22.00;10.07;;;;;;;;;;4929568;29;20139;-71
2021/12/03 16:08:51;;;;;;;19.63;8.40;;;;;;;;;;4928869;29;20040;-72
2021/12/03 16:18:59;;;;;;;27.87;9.73;;;;;;;;;;4931323;29;20034;-71
2021/12/03 16:53:27;;;;;;;16.50;7.07;;;;;;;;;;4935058;28;20035;-72
2021/12/03 16:56:15;;;;;;;16.57;6.90;;;;;;;;;;4930728;29;20035;-71
2021/12/03 16:58:42;;;;;;;17.00;6.55;;;;;;;;;;4929812;29;20460;-72
2021/12/03 17:03:47;;;;;;;14.63;7.05;;;;;;;;;;4930810;29;20063;-73
2021/12/03 17:11:51;;;;;;;19.60;7.70;;;;;;;;;;4930623;29;20074;-73
2021/12/03 17:49:23;;;;;;;29.40;10.50;;;;;;;;;;4931896;29;20027;-72
2021/12/03 17:59:44;;;;;;;25.57;8.70;;;;;;;;;;4932250;29;20034;-72
2021/12/03 18:55:45;;;;;;;25.20;10.17;;;;;;;;;;4935082;29;20028;-72
2021/12/03 18:58:10;;;;;;;23.90;9.83;;;;;;;;;;4934584;29;20027;-72
2021/12/03 19:00:42;;;;;;;24.43;9.10;;;;;;;;;;4934595;29;20024;-72
2021/12/03 19:03:32;;;;;;;15.40;8.47;;;;;;;;;;4933225;29;20023;-71
2021/12/03 19:08:50;;;;;;;25.20;9.50;;;;;;;;;;4935011;29;20032;-74
2021/12/03 19:13:41;;;;;;;22.27;10.20;;;;;;;;;;4934837;29;20028;-71
2021/12/03 19:16:09;;;;;;;24.33;9.37;;;;;;;;;;4932871;29;20054;-71
2021/12/03 19:18:36;;;;;;;18.43;9.13;;;;;;;;;;4933008;29;20476;-72
2021/12/03 19:21:07;;;;;;;25.10;9.60;;;;;;;;;;4933059;29;20028;-72
2021/12/03 19:23:33;;;;;;;20.40;9.60;;;;;;;;;;4934192;29;20400;-72
2021/12/03 19:25:58;;;;;;;23.53;9.97;;;;;;;;;;4932617;29;20024;-72
2021/12/03 19:28:24;;;;;;;20.23;8.37;;;;;;;;;;4932787;29;20444;-73
2021/12/03 19:30:51;;;;;;;22.60;10.60;;;;;;;;;;4934621;29;20415;-73
2021/12/03 19:33:17;;;;;;;21.93;9.37;;;;;;;;;;4932473;29;20455;-72
2021/12/03 19:35:42;;;;;;;22.40;8.27;;;;;;;;;;4934148;29;20341;-73
2021/12/03 19:38:09;;;;;;;18.30;9.60;;;;;;;;;;4932558;29;20024;-73
2021/12/03 19:40:37;;;;;;;27.33;11.40;;;;;;;;;;4933925;29;20039;-70
2021/12/03 19:43:11;;;;;;;29.97;9.73;;;;;;;;;;4917078;29;20024;-72
2021/12/03 19:45:45;;;;;;;24.00;8.40;;;;;;;;;;4932259;29;20119;-72
2021/12/03 19:48:13;;;;;;;21.17;9.63;;;;;;;;;;4933787;29;20323;-71
2021/12/03 19:50:44;;;;;;;24.60;9.87;;;;;;;;;;4933674;29;20039;-71
2021/12/03 19:55:38;;;;;;;23.63;10.67;;;;;;;;;;4948427;29;20039;-72
2021/12/03 19:58:05;;;;;;;25.23;9.97;;;;;;;;;;4931918;29;20062;-73
2021/12/03 20:00:31;;;;;;;31.43;11.87;;;;;;;;;;4933780;29;20115;-73
2021/12/03 20:02:56;;;;;;;33.60;10.10;;;;;;;;;;4932087;29;20114;-71
2021/12/03 20:05:22;;;;;;;28.73;10.60;;;;;;;;;;4933449;29;20036;-71
2021/12/03 20:07:48;;;;;;;25.60;9.87;;;;;;;;;;4932520;29;20468;-74
2021/12/03 20:10:17;;;;;;;20.60;8.80;;;;;;;;;;4932277;29;20040;-73
2021/12/03 20:12:46;;;;;;;20.00;9.57;;;;;;;;;;4932679;29;20026;-72
2021/12/03 20:15:19;;;;;;;32.03;10.27;;;;;;;;;;4934694;29;20031;-72
2021/12/03 20:17:57;;;;;;;19.80;8.93;;;;;;;;;;4934936;29;20039;-71
2021/12/03 20:20:37;;;;;;;26.57;8.97;;;;;;;;;;4933611;29;20421;-72
2021/12/03 20:23:40;;;;;;;24.60;9.13;;;;;;;;;;4932239;29;20097;-71
2021/12/03 20:28:51;;;;;;;18.93;8.63;;;;;;;;;;4933778;29;20515;-72
2021/12/03 20:31:19;;;;;;;28.43;13.90;;;;;;;;;;4918419;29;20078;-71
2021/12/03 20:38:50;;;;;;;20.40;9.37;;;;;;;;;;4932200;29;20035;-72
2021/12/03 20:41:26;;;;;;;19.73;8.93;;;;;;;;;;4933046;29;20467;-72
2021/12/03 20:44:01;;;;;;;20.27;8.63;;;;;;;;;;4932533;29;20020;-71
2021/12/03 20:47:16;;;;;;;24.37;8.17;;;;;;;;;;4931701;29;20554;-71
2021/12/03 21:11:07;;;;;;;15.97;7.90;;;;;;;;;;4932512;29;20063;-73
2021/12/03 21:13:36;;;;;;;26.20;7.70;;;;;;;;;;4931290;29;20039;-71
2021/12/03 21:23:33;;;;;;;19.13;8.07;;;;;;;;;;4932363;29;20115;-71
2021/12/03 21:25:58;;;;;;;26.03;9.53;;;;;;;;;;4932323;29;20031;-71
2021/12/03 21:41:21;;;;;;;22.77;8.50;;;;;;;;;;4932160;29;20039;-71
2021/12/03 21:43:52;;;;;;;19.63;8.40;;;;;;;;;;4930599;29;20032;-74
2021/12/03 21:46:23;;;;;;;21.08;7.95;;;;;;;;;;4931862;29;20114;-72
2021/12/03 21:48:49;;;;;;;17.80;8.13;;;;;;;;;;4930640;29;20122;-71
2021/12/03 21:51:18;;;;;;;19.37;8.40;;;;;;;;;;4931918;29;20043;-71
2021/12/03 21:53:44;;;;;;;14.03;6.53;;;;;;;;;;4931950;29;20127;-71
2021/12/03 21:56:10;;;;;;;15.97;8.13;;;;;;;;;;4932117;29;20036;-73
2021/12/03 21:58:36;;;;;;;19.43;8.57;;;;;;;;;;4935993;29;20027;-71
2021/12/03 22:01:01;;;;;;;15.13;8.27;;;;;;;;;;4935478;29;20054;-70
2021/12/03 22:03:27;;;;;;;17.07;7.63;;;;;;;;;;4934502;29;20059;-70
2021/12/03 22:05:54;;;;;;;17.83;7.63;;;;;;;;;;4936034;29;20035;-71
2021/12/03 22:08:20;;;;;;;17.67;7.10;;;;;;;;;;4934430;29;20031;-71
2021/12/03 22:10:46;;;;;;;19.83;7.40;;;;;;;;;;4935944;29;20058;-72
2021/12/03 22:13:12;;;;;;;17.37;8.87;;;;;;;;;;4933955;29;20063;-72
2021/12/03 22:15:37;;;;;;;16.87;8.27;;;;;;;;;;4935714;29;20105;-71
2021/12/03 22:18:03;;;;;;;17.93;7.90;;;;;;;;;;4933856;29;20032;-70
2021/12/03 22:20:29;;;;;;;23.10;8.00;;;;;;;;;;4934151;29;20040;-73
2021/12/03 22:22:54;;;;;;;17.23;8.57;;;;;;;;;;4935390;29;20032;-72
2021/12/03 22:25:20;;;;;;;17.63;8.03;;;;;;;;;;4935320;29;20039;-72
2021/12/03 22:27:47;;;;;;;16.20;7.73;;;;;;;;;;4935429;29;20083;-73
2021/12/03 22:30:13;;;;;;;18.53;7.43;;;;;;;;;;4935677;29;20164;-70
2021/12/03 22:32:39;;;;;;;18.27;8.40;;;;;;;;;;4935443;29;20032;-71
2021/12/03 22:35:05;;;;;;;13.90;7.40;;;;;;;;;;4935298;29;20095;-71
2021/12/03 22:37:31;;;;;;;15.33;6.87;;;;;;;;;;4918322;29;20476;-70
2021/12/03 22:39:58;;;;;;;16.20;7.43;;;;;;;;;;4935312;29;20043;-72
2021/12/03 22:42:24;;;;;;;19.27;7.30;;;;;;;;;;4933981;29;20671;-72
2021/12/03 22:44:49;;;;;;;17.80;8.57;;;;;;;;;;4933983;29;20039;-71
2021/12/03 22:47:18;;;;;;;18.33;7.33;;;;;;;;;;4933258;29;20126;-72
2021/12/03 22:52:18;;;;;;;;;;;;;;;;;;4934385;29;20042;-72
2021/12/03 22:54:44;;;;;;;20.23;6.70;;;;;;;;;;4935398;29;19910;-71
2021/12/03 22:57:12;;;;;;;16.67;7.63;;;;;;;;;;4934580;29;20547;-71
2021/12/03 22:59:38;;;;;;;16.23;8.47;;;;;;;;;;4934989;29;20038;-69
2021/12/03 23:02:06;;;;;;;15.87;6.93;;;;;;;;;;4934976;29;20180;-71
2021/12/03 23:04:33;;;;;;;16.23;7.70;;;;;;;;;;4934829;29;20090;-72
2021/12/03 23:07:00;;;;;;;17.23;7.70;;;;;;;;;;4932992;29;20035;-71
2021/12/03 23:09:28;;;;;;;14.20;6.07;;;;;;;;;;4934378;29;20031;-72
2021/12/03 23:11:55;;;;;;;17.47;6.27;;;;;;;;;;4933212;29;20063;-70
2021/12/03 23:14:21;;;;;;;15.53;7.00;;;;;;;;;;4934382;29;20038;-72
2021/12/03 23:16:50;;;;;;;17.77;7.27;;;;;;;;;;4933361;29;20369;-71
2021/12/03 23:19:15;;;;;;;12.23;6.13;;;;;;;;;;4932958;29;20030;-72
2021/12/03 23:21:41;;;;;;;15.80;7.70;;;;;;;;;;4933088;29;20401;-72
2021/12/03 23:24:06;;;;;;;14.33;7.07;;;;;;;;;;4932999;29;20502;-70